Omen, Texas
Current Conditions -  °F | °C
As of 9:53 PM on Thursday 27 Nov 2014 (Local Time) from KTYR Reporting Station
Clear Clear  
Wind Chill: 40°   Ceiling: Unl
Heat Index: 44°   Visibility: 10mi
Dew Point: 29°   Wind: 7mph
Humidity: 55%   Direction: 130°SE
Pressure: 30.4"   Gusts: NA
Location:  32.3665°N, 95.1299°W
Report Text: KTYR 280353Z 13006KT 10SM CLR 07/M02 A3040 RMK AO2 SLP294 T00671017
Loading
Personal Weather Stations






























Interactive Weather Map New forecast layout! Learn more

10-Day Weather Forecast

Advertisements
Track Severe Weather on mobile